KIAG/IAG METAR and TAF weather

Enter ICAO airport designator
Station Type Date Time Source
KIAG METAR 2019/12/07 06:53 UTC NOAA

KIAG 070653Z AUTO 33008KT 10SM SCT037 OVC045 M02/M07 A3027 RMK AO2 SLP266 T10221067


Station Type Date Time Source
KIAG Decoded METAR 2019/12/07 06:53 UTC NOAA

NIAGARA FALLS INTERNATIONAL AIRPORT, NY, United States (KIAG) 43-07N 078-56W 182M
Dec 07, 2019 - 01:53 AM EST / 2019.12.07 0653 UTC
Wind: from the NNW (330 degrees) at 9 MPH (8 KT):0
Visibility: 10 mile(s):0
Sky conditions: overcast
Temperature: 28.0 F (-2.2 C)
Windchill: 19 F (-7 C):1
Dew Point: 19.9 F (-6.7 C)
Relative Humidity: 71%
Pressure (altimeter): 30.27 in. Hg (1025 hPa)
ob: KIAG 070653Z AUTO 33008KT 10SM SCT037 OVC045 M02/M07 A3027 RMK AO2 SLP266 T10221067
cycle: 7

Station Type Date Time Source
KIAG TAF 2019/12/07 06:28 UTC NOAA

TAF KIAG 070526Z 0706/0806 30010KT P6SM -SHSN BKN045
FM071000 29008KT P6SM BKN045
FM071400 30010KT P6SM SCT050 BKN150
FM071800 27008KT P6SM SCT050 BKN120
FM080000 17004KT P6SM SCT120

Example: see airport list